Time;durP1;ratioP1;P1;durP2;ratioP2;P2;SDS_P1;SDS_P2;PMS_P1;PMS_P2;Temp;Humidity;BMP_temperature;BMP_pressure;BME280_temperature;BME280_humidity;BME280_pressure;Samples;Min_cycle;Max_cycle;Signal;HPM_P1;HPM_P2
2022/11/19 00:00:05;;;;;;;;;;;;;;;;;;2391333;62;983;-72
2022/11/19 00:02:38;;;;;;;;;;;;;;;;;;2391235;62;1922;-72
2022/11/19 00:05:12;;;;;;;;;;;;;;;;;;2390990;62;851;-72
2022/11/19 00:07:45;;;;;;;;;;;;;;;;;;2387380;62;1173;-73
2022/11/19 00:10:18;;;;;;;;;;;;;;;;;;2391045;62;1047;-72
2022/11/19 00:12:54;;;;;;;;;;;;;;;;;;2391104;62;1245;-72
2022/11/19 00:15:27;;;;;;;;;;;;;;;;;;2390719;54;1086;-72
2022/11/19 00:18:01;;;;;;;;;;;;;;;;;;2391459;62;961;-72
2022/11/19 00:20:34;;;;;;;;;;;;;;;;;;2391041;62;1932;-72
2022/11/19 00:23:07;;;;;;;;;;;;;;;;;;2391584;54;1186;-72
2022/11/19 00:25:40;;;;;;;;;;;;;;;;;;2391277;62;818;-72
2022/11/19 00:28:16;;;;;;;;;;;;;;;;;;2391338;62;991;-72
2022/11/19 00:30:49;;;;;;;;;;;;;;;;;;2391433;62;1228;-72
2022/11/19 00:33:23;;;;;;;;;;;;;;;;;;2391244;62;983;-72
2022/11/19 00:35:57;;;;;;;;;;;;;;;;;;2391305;62;1016;-72
2022/11/19 00:38:31;;;;;;;;;;;;;;;;;;2391004;62;959;-72
2022/11/19 00:41:04;;;;;;;;;;;;;;;;;;2391098;62;1976;-72
2022/11/19 00:43:49;;;;;;;;;;;;;;;;;;2390727;62;1011;-73
2022/11/19 00:46:23;;;;;;;;;;;;;;;;;;2386634;62;1751;-72
2022/11/19 00:48:58;;;;;;;;;;;;;;;;;;2390967;62;1000;-72
2022/11/19 00:51:31;;;;;;;;;;;;;;;;;;2387157;62;1205;-72
2022/11/19 00:54:05;;;;;;;;;;;;;;;;;;2391655;62;1014;-72
2022/11/19 00:56:38;;;;;;;;;;;;;;;;;;2391115;54;888;-72
2022/11/19 00:59:14;;;;;;;;;;;;;;;;;;2391031;54;1024;-72
2022/11/19 01:01:47;;;;;;;;;;;;;;;;;;2390999;62;2303;-72
2022/11/19 01:04:20;;;;;;;;;;;;;;;;;;2391212;62;1054;-72
2022/11/19 01:06:54;;;;;;;;;;;;;;;;;;2391325;62;1015;-72
2022/11/19 01:09:28;;;;;;;;;;;;;;;;;;2391085;62;981;-72
2022/11/19 01:12:01;;;;;;;;;;;;;;;;;;2391206;54;1149;-72
2022/11/19 01:14:37;;;;;;;;;;;;;;;;;;2391294;62;1013;-72
2022/11/19 01:17:10;;;;;;;;;;;;;;;;;;2391370;62;875;-72
2022/11/19 01:19:43;;;;;;;;;;;;;;;;;;2391230;62;1038;-72
2022/11/19 01:22:16;;;;;;;;;;;;;;;;;;2391077;54;1935;-72
2022/11/19 01:24:49;;;;;;;;;;;;;;;;;;2391132;62;1038;-73
2022/11/19 01:27:22;;;;;;;;;;;;;;;;;;2391250;62;1050;-72
2022/11/19 01:29:58;;;;;;;;;;;;;;;;;;2391115;62;1038;-72
2022/11/19 01:32:32;;;;;;;;;;;;;;;;;;2391172;62;1182;-72
2022/11/19 01:35:05;;;;;;;;;;;;;;;;;;2391081;62;1071;-72
2022/11/19 01:37:38;;;;;;;;;;;;;;;;;;2391212;54;907;-72
2022/11/19 01:40:12;;;;;;;;;;;;;;;;;;2390537;55;1032;-72
2022/11/19 01:42:52;;;;;;;;;;;;;;;;;;2386760;62;2055;-72
2022/11/19 01:45:34;;;;;;;;;;;;;;;;;;2391172;54;1074;-72
2022/11/19 01:48:09;;;;;;;;;;;;;;;;;;2391046;62;1019;-72
2022/11/19 01:50:44;;;;;;;;;;;;;;;;;;2390958;62;1028;-72
2022/11/19 01:53:18;;;;;;;;;;;;;;;;;;2391282;54;1035;-72
2022/11/19 01:55:52;;;;;;;;;;;;;;;;;;2391395;62;1016;-72
2022/11/19 01:58:25;;;;;;;;;;;;;;;;;;2391154;62;1021;-72
2022/11/19 02:01:01;;;;;;;;;;;;;;;;;;2391390;54;1238;-72
2022/11/19 02:03:35;;;;;;;;;;;;;;;;;;2391179;54;1990;-73
2022/11/19 02:06:09;;;;;;;;;;;;;;;;;;2391529;62;949;-72
2022/11/19 02:08:43;;;;;;;;;;;;;;;;;;2391566;62;971;-72
2022/11/19 02:11:27;;;;;;;;;;;;;;;;;;2391093;62;1212;-72
2022/11/19 02:14:04;;;;;;;;;;;;;;;;;;2391687;62;866;-72
2022/11/19 02:16:46;;;;;;;;;;;;;;;;;;2390945;62;1052;-72
2022/11/19 02:19:29;;;;;;;;;;;;;;;;;;2391154;62;1010;-72
2022/11/19 02:22:09;;;;;;;;;;;;;;;;;;2391494;54;2011;-72
2022/11/19 02:24:47;;;;;;;;;;;;;;;;;;2391092;62;1028;-72
2022/11/19 02:27:33;;;;;;;;;;;;;;;;;;2390955;62;1059;-72
2022/11/19 02:30:11;;;;;;;;;;;;;;;;;;2391465;54;861;-72
2022/11/19 02:32:50;;;;;;;;;;;;;;;;;;2391023;62;1225;-72
2022/11/19 02:35:25;;;;;;;;;;;;;;;;;;2386979;62;1421;-72
2022/11/19 02:38:02;;;;;;;;;;;;;;;;;;2387110;62;2104;-72
2022/11/19 02:40:38;;;;;;;;;;;;;;;;;;2390851;54;1078;-73
2022/11/19 02:43:16;;;;;;;;;;;;;;;;;;2391211;62;1935;-72
2022/11/19 02:45:53;;;;;;;;;;;;;;;;;;2391291;62;1020;-73
2022/11/19 02:48:29;;;;;;;;;;;;;;;;;;2391090;54;868;-72
2022/11/19 02:51:03;;;;;;;;;;;;;;;;;;2391109;62;1188;-72
2022/11/19 02:53:36;;;;;;;;;;;;;;;;;;2391089;62;1064;-72
2022/11/19 02:56:16;;;;;;;;;;;;;;;;;;2391288;54;1045;-72
2022/11/19 03:04:34;;;;;;;;;;;;;;;;;;2386888;54;1284;-72
2022/11/19 03:07:11;;;;;;;;;;;;;;;;;;2391260;62;981;-72
2022/11/19 03:09:47;;;;;;;;;;;;;;;;;;2387068;62;1482;-72
2022/11/19 03:12:24;;;;;;;;;;;;;;;;;;2391194;54;1200;-72
2022/11/19 03:18:00;;;;;;;;;;;;;;;;;;2387152;62;1181;-73
2022/11/19 03:20:36;;;;;;;;;;;;;;;;;;2391221;62;965;-72
2022/11/19 09:23:44;;;;;;;;;;;;;;;;;;2383241;54;1746;-72
2022/11/19 09:26:20;;;;;;;;;;;;;;;;;;2381342;54;802;-72
2022/11/19 09:28:54;;;;;;;;;;;;;;;;;;2377659;62;1188;-72
2022/11/19 09:31:29;;;;;;;;;;;;;;;;;;2381876;62;966;-72
2022/11/19 09:34:09;;;;;;;;;;;;;;;;;;2377017;62;1189;-72
2022/11/19 09:36:42;;;;;;;;;;;;;;;;;;2382400;62;892;-72
2022/11/19 09:39:16;;;;;;;;;;;;;;;;;;2382258;62;1042;-72
2022/11/19 09:41:54;;;;;;;;;;;;;;;;;;2382339;62;1013;-72
2022/11/19 09:44:42;;;;;;;;;;;;;;;;;;2381697;54;1039;-72
2022/11/19 09:47:21;;;;;;;;;;;;;;;;;;2381594;62;1073;-72
2022/11/19 09:50:01;;;;;;;;;;;;;;;;;;2382108;62;1025;-72
2022/11/19 09:52:39;;;;;;;;;;;;;;;;;;2382011;54;1267;-72
2022/11/19 09:55:17;;;;;;;;;;;;;;;;;;2382492;62;1023;-72
2022/11/19 09:57:54;;;;;;;;;;;;;;;;;;2381992;55;1011;-72
2022/11/19 10:00:29;;;;;;;;;;;;;;;;;;2381594;62;1015;-72
2022/11/19 10:03:03;;;;;;;;;;;;;;;;;;2381034;62;1930;-72
2022/11/19 10:05:42;;;;;;;;;;;;;;;;;;2381027;62;1019;-72
2022/11/19 10:08:25;;;;;;;;;;;;;;;;;;2381228;62;995;-72
2022/11/19 10:11:05;;;;;;;;;;;;;;;;;;2380802;62;1031;-72
2022/11/19 10:13:48;;;;;;;;;;;;;;;;;;2381232;62;1145;-72
2022/11/19 10:16:35;;;;;;;;;;;;;;;;;;2381392;62;1010;-72
2022/11/19 10:19:10;;;;;;;;;;;;;;;;;;2381486;62;980;-72
2022/11/19 10:21:47;;;;;;;;;;;;;;;;;;2378057;62;1424;-72
2022/11/19 10:24:27;;;;;;;;;;;;;;;;;;2382241;54;1923;-72
2022/11/19 10:27:01;;;;;;;;;;;;;;;;;;2378401;62;1129;-72
2022/11/19 10:29:39;;;;;;;;;;;;;;;;;;2382414;62;948;-72
2022/11/19 10:32:20;;;;;;;;;;;;;;;;;;2378133;62;1166;-72
2022/11/19 10:34:57;;;;;;;;;;;;;;;;;;2382530;62;1304;-72
2022/11/19 10:37:33;;;;;;;;;;;;;;;;;;2378313;62;1640;-72
2022/11/19 10:40:09;;;;;;;;;;;;;;;;;;2378031;62;1033;-72
2022/11/19 10:42:46;;;;;;;;;;;;;;;;;;2382579;62;2251;-72
2022/11/19 10:45:24;;;;;;;;;;;;;;;;;;2382411;62;1015;-72
2022/11/19 10:48:00;;;;;;;;;;;;;;;;;;2378194;62;849;-72
2022/11/19 10:50:33;;;;;;;;;;;;;;;;;;2381561;54;1178;-72
2022/11/19 10:53:09;;;;;;;;;;;;;;;;;;2382676;62;1214;-72
2022/11/19 10:55:44;;;;;;;;;;;;;;;;;;2378534;62;1049;-72
2022/11/19 10:58:20;;;;;;;;;;;;;;;;;;2382277;62;810;-72
2022/11/19 11:00:58;;;;;;;;;;;;;;;;;;2382500;62;1025;-72
2022/11/19 11:03:33;;;;;;;;;;;;;;;;;;2382456;62;1953;-72
2022/11/19 11:06:08;;;;;;;;;;;;;;;;;;2382566;62;993;-72
2022/11/19 11:08:49;;;;;;;;;;;;;;;;;;2382321;54;1040;-72
2022/11/19 11:14:50;;;;;;;;;;;;;;;;;;2378225;62;1386;-72
2022/11/19 11:17:18;;;;;;;;;;;;;;;;;;2382270;62;1576;-72
2022/11/19 11:20:02;;;;;;;;;;;;;;;;;;2378195;62;1047;-72
2022/11/19 11:22:37;;;;;;;;;;;;;;;;;;2382457;54;1926;-72
2022/11/19 11:25:20;;;;;;;;;;;;;;;;;;2382504;62;1042;-72
2022/11/19 11:28:05;;;;;;;;;;;;;;;;;;2382369;54;1199;-72
2022/11/19 11:30:39;;;;;;;;;;;;;;;;;;2382156;62;988;-72
2022/11/19 11:33:31;;;;;;;;;;;;;;;;;;2382158;62;1146;-72
2022/11/19 11:36:07;;;;;;;;;;;;;;;;;;2382386;62;967;-72
2022/11/19 11:38:42;;;;;;;;;;;;;;;;;;2382477;62;1034;-72
2022/11/19 11:41:17;;;;;;;;;;;;;;;;;;2382484;62;1027;-73
2022/11/19 11:44:02;;;;;;;;;;;;;;;;;;2382089;54;1923;-73
2022/11/19 11:46:41;;;;;;;;;;;;;;;;;;2382348;62;1026;-73
2022/11/19 11:49:25;;;;;;;;;;;;;;;;;;2382000;62;1003;-72
2022/11/19 11:52:05;;;;;;;;;;;;;;;;;;2382381;62;1225;-73
2022/11/19 11:54:39;;;;;;;;;;;;;;;;;;2382181;62;1043;-72
2022/11/19 11:57:17;;;;;;;;;;;;;;;;;;2381890;62;1018;-72
2022/11/19 11:59:50;;;;;;;;;;;;;;;;;;2382408;62;935;-72
2022/11/19 12:02:25;;;;;;;;;;;;;;;;;;2382470;62;1206;-72
2022/11/19 12:05:02;;;;;;;;;;;;;;;;;;2382517;62;1926;-72
2022/11/19 12:07:46;;;;;;;;;;;;;;;;;;2382684;62;1027;-72
2022/11/19 12:10:24;;;;;;;;;;;;;;;;;;2382246;62;918;-72
2022/11/19 12:13:09;;;;;;;;;;;;;;;;;;2382537;62;1211;-72
2022/11/19 12:15:46;;;;;;;;;;;;;;;;;;2382531;62;999;-72
2022/11/19 12:18:25;;;;;;;;;;;;;;;;;;2381574;62;1049;-72
2022/11/19 12:21:05;;;;;;;;;;;;;;;;;;2381533;54;1031;-73
2022/11/19 12:23:47;;;;;;;;;;;;;;;;;;2382336;54;1986;-72
2022/11/19 12:26:25;;;;;;;;;;;;;;;;;;2382244;62;959;-72
2022/11/19 12:29:04;;;;;;;;;;;;;;;;;;2381841;54;959;-72
2022/11/19 12:31:46;;;;;;;;;;;;;;;;;;2382113;62;1019;-72
2022/11/19 12:34:34;;;;;;;;;;;;;;;;;;2381238;62;1211;-72
2022/11/19 12:37:19;;;;;;;;;;;;;;;;;;2382181;62;997;-72
2022/11/19 12:39:55;;;;;;;;;;;;;;;;;;2377771;62;1815;-72
2022/11/19 12:42:35;;;;;;;;;;;;;;;;;;2380410;62;1157;-72
2022/11/19 12:45:15;;;;;;;;;;;;;;;;;;2380996;54;1979;-72
2022/11/19 12:48:00;;;;;;;;;;;;;;;;;;2381624;62;927;-72
2022/11/19 12:50:41;;;;;;;;;;;;;;;;;;2381196;55;968;-72
2022/11/19 12:53:22;;;;;;;;;;;;;;;;;;2381236;62;1124;-72
2022/11/19 12:56:04;;;;;;;;;;;;;;;;;;2382310;62;1039;-72
2022/11/19 12:58:44;;;;;;;;;;;;;;;;;;2378064;62;1556;-72
2022/11/19 13:01:20;;;;;;;;;;;;;;;;;;2381990;62;988;-72
2022/11/19 13:04:01;;;;;;;;;;;;;;;;;;2381891;62;1920;-72
2022/11/19 13:06:37;;;;;;;;;;;;;;;;;;2382418;62;880;-72
2022/11/19 13:09:17;;;;;;;;;;;;;;;;;;2382057;62;1005;-72
2022/11/19 13:11:53;;;;;;;;;;;;;;;;;;2382065;62;1128;-72
2022/11/19 13:14:29;;;;;;;;;;;;;;;;;;2377919;62;1058;-72
2022/11/19 13:17:03;;;;;;;;;;;;;;;;;;2382234;62;1025;-72
2022/11/19 13:19:38;;;;;;;;;;;;;;;;;;2382018;62;1008;-72
2022/11/19 13:22:15;;;;;;;;;;;;;;;;;;2382332;54;1134;-73
2022/11/19 13:24:54;;;;;;;;;;;;;;;;;;2382160;62;1980;-72
2022/11/19 13:27:28;;;;;;;;;;;;;;;;;;2382262;62;1009;-72
2022/11/19 13:30:04;;;;;;;;;;;;;;;;;;2381954;62;848;-72
2022/11/19 13:32:40;;;;;;;;;;;;;;;;;;2382420;62;1214;-72
2022/11/19 13:35:18;;;;;;;;;;;;;;;;;;2382367;62;1026;-72
2022/11/19 13:37:55;;;;;;;;;;;;;;;;;;2382346;54;1039;-72
2022/11/19 13:40:35;;;;;;;;;;;;;;;;;;2376745;62;1383;-72
2022/11/19 13:46:06;;;;;;;;;;;;;;;;;;2377522;62;1434;-72
2022/11/19 13:48:42;;;;;;;;;;;;;;;;;;2381631;62;1027;-72
2022/11/19 13:51:26;;;;;;;;;;;;;;;;;;2381398;62;1029;-72
2022/11/19 13:54:00;;;;;;;;;;;;;;;;;;2381898;54;1139;-72
2022/11/19 13:56:43;;;;;;;;;;;;;;;;;;2382376;62;972;-72
2022/11/19 13:59:29;;;;;;;;;;;;;;;;;;2382004;62;1058;-72
2022/11/19 14:02:17;;;;;;;;;;;;;;;;;;2382345;54;1284;-72
2022/11/19 14:05:03;;;;;;;;;;;;;;;;;;2381065;54;1974;-72
2022/11/19 14:07:44;;;;;;;;;;;;;;;;;;2382135;62;872;-72
2022/11/19 14:10:18;;;;;;;;;;;;;;;;;;2382201;62;949;-72
2022/11/19 14:13:04;;;;;;;;;;;;;;;;;;2382080;54;1130;-72
2022/11/19 14:27:48;;;;;;;;;;;;;;;;;;2382059;62;991;-72
2022/11/19 14:30:44;;;;;;;;;;;;;;;;;;2381824;62;1063;-73
2022/11/19 14:33:32;;;;;;;;;;;;;;;;;;2381297;62;1144;-72
2022/11/19 14:36:13;;;;;;;;;;;;;;;;;;2382157;62;1062;-72
2022/11/19 14:38:49;;;;;;;;;;;;;;;;;;2382355;62;941;-72
2022/11/19 14:41:30;;;;;;;;;;;;;;;;;;2381713;62;892;-72
2022/11/19 14:44:12;;;;;;;;;;;;;;;;;;2382052;62;1979;-72
2022/11/19 14:46:49;;;;;;;;;;;;;;;;;;2382426;62;1030;-72
2022/11/19 14:49:28;;;;;;;;;;;;;;;;;;2381578;62;1050;-72
2022/11/19 14:52:04;;;;;;;;;;;;;;;;;;2382456;62;1149;-72
2022/11/19 14:54:40;;;;;;;;;;;;;;;;;;2378276;62;2080;-72
2022/11/19 14:57:18;;;;;;;;;;;;;;;;;;2382265;62;1019;-72
2022/11/19 14:59:53;;;;;;;;;;;;;;;;;;2381603;62;1055;-72
2022/11/19 15:02:29;;;;;;;;;;;;;;;;;;2381170;62;1221;-72
2022/11/19 15:05:06;;;;;;;;;;;;;;;;;;2380742;55;1925;-72
2022/11/19 15:07:43;;;;;;;;;;;;;;;;;;2376605;62;1404;-72
2022/11/19 15:10:27;;;;;;;;;;;;;;;;;;2380933;62;1079;-72
2022/11/19 15:18:36;;;;;;;;;;;;;;;;;;2387864;62;1439;-72
2022/11/19 15:21:17;;;;;;;;;;;;;;;;;;2389606;62;971;-71
